Terminal Aerodrome Forecast
Issued by NWS Northern Indiana

Home | Current Version | Previous Version | Text Only | Print | Product List | Glossary On
Versions: 1 2 3 4 5 6 7 8 9 10 11 12
689
FTUS43 KIWX 212320
TAFFWA
TAF
KFWA 212320Z 2200/2224 18007KT P6SM BKN250
     FM220600 18006KT P6SM BKN250 WS020/20040KT
     FM221300 18012G18KT P6SM BKN250
     FM222100 19012KT P6SM BKN080=

USA.gov is the U.S. government's official web portal to all federal, state and local government web resources and services.